KBEC/BEC METAR and TAF weather

Enter ICAO airport designator
Station Type Date Time Source
KBEC METAR 2021/01/27 13:55 UTC NOAA

KBEC 271355Z AUTO 32006KT 10SM OVC009 M05/M07 A3029 RMK AO2 T10501070


Station Type Date Time Source
KBEC Decoded METAR 2021/01/27 13:55 UTC NOAA

Station name not available
Jan 27, 2021 - 08:55 AM EST / 2021.01.27 1355 UTC
Wind: from the NW (320 degrees) at 7 MPH (6 KT):0
Visibility: 10 mile(s):0
Sky conditions: overcast
Temperature: 23.0 F (-5.0 C)
Windchill: 14 F (-10 C):1
Dew Point: 19.4 F (-7.0 C)
Relative Humidity: 85%
Pressure (altimeter): 30.29 in. Hg (1025 hPa)
ob: KBEC 271355Z AUTO 32006KT 10SM OVC009 M05/M07 A3029 RMK AO2 T10501070
cycle: 14

Station Type Date Time Source
KBEC TAF UTC NOAA

Error!

Example: see airport list